sensor_id;sensor_type;location;lat;lon;timestamp;temperature;humidity
67572;SHT31;54397;47.506;19.158;2022-10-16T00:01:44;15.78;67.21
67572;SHT31;54397;47.506;19.158;2022-10-16T00:05:06;15.81;66.95
67572;SHT31;54397;47.506;19.158;2022-10-16T00:08:31;15.80;66.28
67572;SHT31;54397;47.506;19.158;2022-10-16T00:11:57;15.74;66.85
67572;SHT31;54397;47.506;19.158;2022-10-16T00:15:19;15.74;67.12
67572;SHT31;54397;47.506;19.158;2022-10-16T00:18:40;15.68;67.18
67572;SHT31;54397;47.506;19.158;2022-10-16T00:22:02;15.63;67.38
67572;SHT31;54397;47.506;19.158;2022-10-16T00:25:24;15.51;67.68
67572;SHT31;54397;47.506;19.158;2022-10-16T00:28:47;15.39;68.83
67572;SHT31;54397;47.506;19.158;2022-10-16T00:32:09;15.13;69.43
67572;SHT31;54397;47.506;19.158;2022-10-16T00:35:30;15.06;70.08
67572;SHT31;54397;47.506;19.158;2022-10-16T00:38:56;15.06;70.54
67572;SHT31;54397;47.506;19.158;2022-10-16T00:42:18;15.25;70.24
67572;SHT31;54397;47.506;19.158;2022-10-16T00:45:40;15.26;70.41
67572;SHT31;54397;47.506;19.158;2022-10-16T00:49:07;15.35;69.04
67572;SHT31;54397;47.506;19.158;2022-10-16T00:52:29;15.25;69.55
67572;SHT31;54397;47.506;19.158;2022-10-16T00:55:51;15.23;69.22
67572;SHT31;54397;47.506;19.158;2022-10-16T00:59:25;15.25;69.92
67572;SHT31;54397;47.506;19.158;2022-10-16T01:02:58;15.15;69.08
67572;SHT31;54397;47.506;19.158;2022-10-16T01:06:30;15.13;70.39
67572;SHT31;54397;47.506;19.158;2022-10-16T01:13:40;15.33;70.14
67572;SHT31;54397;47.506;19.158;2022-10-16T01:17:31;15.08;70.28
67572;SHT31;54397;47.506;19.158;2022-10-16T01:21:11;15.00;71.05
67572;SHT31;54397;47.506;19.158;2022-10-16T01:24:48;15.12;70.45
67572;SHT31;54397;47.506;19.158;2022-10-16T01:28:15;15.23;69.80
67572;SHT31;54397;47.506;19.158;2022-10-16T01:31:47;15.25;69.79
67572;SHT31;54397;47.506;19.158;2022-10-16T01:35:21;15.25;69.36
67572;SHT31;54397;47.506;19.158;2022-10-16T01:38:49;15.08;69.41
67572;SHT31;54397;47.506;19.158;2022-10-16T01:42:22;14.93;69.96
67572;SHT31;54397;47.506;19.158;2022-10-16T01:45:45;14.91;69.75
67572;SHT31;54397;47.506;19.158;2022-10-16T01:49:11;14.81;70.67
67572;SHT31;54397;47.506;19.158;2022-10-16T01:52:39;14.85;70.97
67572;SHT31;54397;47.506;19.158;2022-10-16T01:56:06;14.93;70.66
67572;SHT31;54397;47.506;19.158;2022-10-16T01:59:33;14.92;70.72
67572;SHT31;54397;47.506;19.158;2022-10-16T02:03:01;14.89;71.54
67572;SHT31;54397;47.506;19.158;2022-10-16T02:06:23;14.79;71.89
67572;SHT31;54397;47.506;19.158;2022-10-16T02:09:49;14.60;72.69
67572;SHT31;54397;47.506;19.158;2022-10-16T02:13:23;14.54;73.19
67572;SHT31;54397;47.506;19.158;2022-10-16T02:16:46;14.44;73.21
67572;SHT31;54397;47.506;19.158;2022-10-16T02:20:08;14.33;73.93
67572;SHT31;54397;47.506;19.158;2022-10-16T02:23:51;14.23;74.24
67572;SHT31;54397;47.506;19.158;2022-10-16T02:31:02;14.02;74.91
67572;SHT31;54397;47.506;19.158;2022-10-16T02:34:25;13.82;74.71
67572;SHT31;54397;47.506;19.158;2022-10-16T02:37:48;13.83;74.80
67572;SHT31;54397;47.506;19.158;2022-10-16T02:41:10;13.81;74.84
67572;SHT31;54397;47.506;19.158;2022-10-16T02:44:34;13.81;73.60
67572;SHT31;54397;47.506;19.158;2022-10-16T02:47:58;13.81;71.81
67572;SHT31;54397;47.506;19.158;2022-10-16T02:51:20;13.82;72.63
67572;SHT31;54397;47.506;19.158;2022-10-16T02:54:41;13.61;72.68
67572;SHT31;54397;47.506;19.158;2022-10-16T02:58:03;13.41;73.48
67572;SHT31;54397;47.506;19.158;2022-10-16T03:01:27;13.53;73.79
67572;SHT31;54397;47.506;19.158;2022-10-16T03:04:49;13.53;74.04
67572;SHT31;54397;47.506;19.158;2022-10-16T03:08:11;13.37;73.83
67572;SHT31;54397;47.506;19.158;2022-10-16T03:11:32;13.13;74.66
67572;SHT31;54397;47.506;19.158;2022-10-16T03:14:59;13.02;75.64
67572;SHT31;54397;47.506;19.158;2022-10-16T03:18:20;12.96;75.18
67572;SHT31;54397;47.506;19.158;2022-10-16T03:21:42;13.04;75.73
67572;SHT31;54397;47.506;19.158;2022-10-16T03:25:05;13.06;75.84
67572;SHT31;54397;47.506;19.158;2022-10-16T03:28:26;13.07;75.52
67572;SHT31;54397;47.506;19.158;2022-10-16T03:31:48;13.00;75.80
67572;SHT31;54397;47.506;19.158;2022-10-16T03:35:13;12.96;75.88
67572;SHT31;54397;47.506;19.158;2022-10-16T03:38:37;12.89;75.82
67572;SHT31;54397;47.506;19.158;2022-10-16T03:42:03;12.89;76.01
67572;SHT31;54397;47.506;19.158;2022-10-16T03:45:27;12.82;76.02
67572;SHT31;54397;47.506;19.158;2022-10-16T03:48:49;12.73;76.28
67572;SHT31;54397;47.506;19.158;2022-10-16T03:52:10;12.61;76.62
67572;SHT31;54397;47.506;19.158;2022-10-16T03:55:35;12.66;76.49
67572;SHT31;54397;47.506;19.158;2022-10-16T03:58:57;12.59;76.73
67572;SHT31;54397;47.506;19.158;2022-10-16T04:02:21;12.59;76.79
67572;SHT31;54397;47.506;19.158;2022-10-16T04:05:42;12.55;76.63
67572;SHT31;54397;47.506;19.158;2022-10-16T04:09:04;12.48;76.93
67572;SHT31;54397;47.506;19.158;2022-10-16T04:12:28;12.11;77.50
67572;SHT31;54397;47.506;19.158;2022-10-16T04:15:55;12.10;78.14
67572;SHT31;54397;47.506;19.158;2022-10-16T04:19:19;12.07;77.22
67572;SHT31;54397;47.506;19.158;2022-10-16T04:22:40;12.04;78.03
67572;SHT31;54397;47.506;19.158;2022-10-16T04:26:07;12.01;77.45
67572;SHT31;54397;47.506;19.158;2022-10-16T04:29:29;11.94;77.28
67572;SHT31;54397;47.506;19.158;2022-10-16T04:32:51;12.05;77.31
67572;SHT31;54397;47.506;19.158;2022-10-16T04:36:13;12.04;76.83
67572;SHT31;54397;47.506;19.158;2022-10-16T04:39:34;11.77;77.00
67572;SHT31;54397;47.506;19.158;2022-10-16T04:42:56;11.86;77.70
67572;SHT31;54397;47.506;19.158;2022-10-16T04:46:18;11.86;77.45
67572;SHT31;54397;47.506;19.158;2022-10-16T04:49:42;11.93;77.58
67572;SHT31;54397;47.506;19.158;2022-10-16T04:53:03;11.97;77.33
67572;SHT31;54397;47.506;19.158;2022-10-16T04:56:25;12.01;77.35
67572;SHT31;54397;47.506;19.158;2022-10-16T04:59:49;12.01;76.73
67572;SHT31;54397;47.506;19.158;2022-10-16T05:03:10;11.97;76.88
67572;SHT31;54397;47.506;19.158;2022-10-16T05:06:40;11.93;76.81
67572;SHT31;54397;47.506;19.158;2022-10-16T05:10:04;11.91;76.98
67572;SHT31;54397;47.506;19.158;2022-10-16T05:13:28;11.87;76.97
67572;SHT31;54397;47.506;19.158;2022-10-16T05:16:50;11.84;76.57
67572;SHT31;54397;47.506;19.158;2022-10-16T05:20:12;11.82;76.61
67572;SHT31;54397;47.506;19.158;2022-10-16T05:23:36;11.77;76.77
67572;SHT31;54397;47.506;19.158;2022-10-16T05:26:57;11.67;76.27
67572;SHT31;54397;47.506;19.158;2022-10-16T05:30:22;11.63;76.86
67572;SHT31;54397;47.506;19.158;2022-10-16T05:33:43;11.66;77.14
67572;SHT31;54397;47.506;19.158;2022-10-16T05:37:08;11.67;77.21
67572;SHT31;54397;47.506;19.158;2022-10-16T05:40:29;11.75;76.78
67572;SHT31;54397;47.506;19.158;2022-10-16T05:43:53;11.76;76.08
67572;SHT31;54397;47.506;19.158;2022-10-16T05:47:15;11.83;76.35
67572;SHT31;54397;47.506;19.158;2022-10-16T05:50:39;11.82;76.73
67572;SHT31;54397;47.506;19.158;2022-10-16T05:54:00;11.76;76.09
67572;SHT31;54397;47.506;19.158;2022-10-16T05:57:24;11.86;76.64
67572;SHT31;54397;47.506;19.158;2022-10-16T06:01:07;11.87;76.78
67572;SHT31;54397;47.506;19.158;2022-10-16T06:04:30;11.87;76.50
67572;SHT31;54397;47.506;19.158;2022-10-16T06:07:52;11.98;76.09
67572;SHT31;54397;47.506;19.158;2022-10-16T06:11:16;12.16;75.03
67572;SHT31;54397;47.506;19.158;2022-10-16T06:14:37;12.38;74.96
67572;SHT31;54397;47.506;19.158;2022-10-16T06:17:59;12.40;74.49
67572;SHT31;54397;47.506;19.158;2022-10-16T06:21:24;12.48;74.32
67572;SHT31;54397;47.506;19.158;2022-10-16T06:24:46;12.31;74.87
67572;SHT31;54397;47.506;19.158;2022-10-16T06:28:11;12.32;74.60
67572;SHT31;54397;47.506;19.158;2022-10-16T06:31:32;12.49;74.60
67572;SHT31;54397;47.506;19.158;2022-10-16T06:34:56;12.49;74.53
67572;SHT31;54397;47.506;19.158;2022-10-16T06:38:18;12.48;74.62
67572;SHT31;54397;47.506;19.158;2022-10-16T06:41:42;12.55;74.12
67572;SHT31;54397;47.506;19.158;2022-10-16T06:45:06;12.85;72.66
67572;SHT31;54397;47.506;19.158;2022-10-16T06:48:28;13.10;72.65
67572;SHT31;54397;47.506;19.158;2022-10-16T06:51:55;13.14;72.55
67572;SHT31;54397;47.506;19.158;2022-10-16T06:55:16;13.55;71.76
67572;SHT31;54397;47.506;19.158;2022-10-16T06:58:41;13.87;70.28
67572;SHT31;54397;47.506;19.158;2022-10-16T07:02:03;13.79;69.00
67572;SHT31;54397;47.506;19.158;2022-10-16T07:05:24;13.96;68.67
67572;SHT31;54397;47.506;19.158;2022-10-16T07:08:46;14.36;67.81
67572;SHT31;54397;47.506;19.158;2022-10-16T07:12:08;14.72;65.73
67572;SHT31;54397;47.506;19.158;2022-10-16T07:15:29;14.44;66.88
67572;SHT31;54397;47.506;19.158;2022-10-16T07:18:54;14.84;65.16
67572;SHT31;54397;47.506;19.158;2022-10-16T07:22:20;15.10;65.45
67572;SHT31;54397;47.506;19.158;2022-10-16T07:25:45;15.15;63.34
67572;SHT31;54397;47.506;19.158;2022-10-16T07:29:18;14.88;64.96
67572;SHT31;54397;47.506;19.158;2022-10-16T07:32:40;15.22;63.72
67572;SHT31;54397;47.506;19.158;2022-10-16T07:36:02;15.35;62.59
67572;SHT31;54397;47.506;19.158;2022-10-16T07:39:28;15.64;63.64
67572;SHT31;54397;47.506;19.158;2022-10-16T07:42:52;16.13;61.90
67572;SHT31;54397;47.506;19.158;2022-10-16T07:46:17;16.80;59.37
67572;SHT31;54397;47.506;19.158;2022-10-16T07:49:41;17.42;57.58
67572;SHT31;54397;47.506;19.158;2022-10-16T07:53:05;17.90;56.46
67572;SHT31;54397;47.506;19.158;2022-10-16T07:56:26;17.12;58.47
67572;SHT31;54397;47.506;19.158;2022-10-16T07:59:50;16.83;58.45
67572;SHT31;54397;47.506;19.158;2022-10-16T08:03:14;16.80;59.20
67572;SHT31;54397;47.506;19.158;2022-10-16T08:06:38;16.90;59.43
67572;SHT31;54397;47.506;19.158;2022-10-16T08:09:59;17.25;57.11
67572;SHT31;54397;47.506;19.158;2022-10-16T08:13:24;17.65;58.54
67572;SHT31;54397;47.506;19.158;2022-10-16T08:16:51;17.57;57.46
67572;SHT31;54397;47.506;19.158;2022-10-16T08:20:12;17.31;57.25
67572;SHT31;54397;47.506;19.158;2022-10-16T08:23:34;16.69;59.18
67572;SHT31;54397;47.506;19.158;2022-10-16T08:26:56;16.63;58.76
67572;SHT31;54397;47.506;19.158;2022-10-16T08:30:19;16.49;60.92
67572;SHT31;54397;47.506;19.158;2022-10-16T08:33:43;16.73;60.13
67572;SHT31;54397;47.506;19.158;2022-10-16T08:37:09;16.69;59.73
67572;SHT31;54397;47.506;19.158;2022-10-16T08:40:33;16.79;58.60
67572;SHT31;54397;47.506;19.158;2022-10-16T08:47:45;17.25;58.04
67572;SHT31;54397;47.506;19.158;2022-10-16T08:51:12;17.35;57.11
67572;SHT31;54397;47.506;19.158;2022-10-16T08:54:42;17.69;59.42
67572;SHT31;54397;47.506;19.158;2022-10-16T08:58:15;17.84;55.86
67572;SHT31;54397;47.506;19.158;2022-10-16T09:01:39;18.34;54.46
67572;SHT31;54397;47.506;19.158;2022-10-16T09:15:58;20.44;51.33
67572;SHT31;54397;47.506;19.158;2022-10-16T09:19:37;20.65;52.17
67572;SHT31;54397;47.506;19.158;2022-10-16T09:26:28;19.57;51.91
67572;SHT31;54397;47.506;19.158;2022-10-16T09:29:49;19.13;51.70
67572;SHT31;54397;47.506;19.158;2022-10-16T09:33:12;19.50;53.20
67572;SHT31;54397;47.506;19.158;2022-10-16T09:36:41;19.81;51.05
67572;SHT31;54397;47.506;19.158;2022-10-16T09:40:04;19.51;51.67
67572;SHT31;54397;47.506;19.158;2022-10-16T09:43:33;19.65;52.72
67572;SHT31;54397;47.506;19.158;2022-10-16T09:50:30;19.04;53.41
67572;SHT31;54397;47.506;19.158;2022-10-16T09:54:12;19.78;51.92
67572;SHT31;54397;47.506;19.158;2022-10-16T09:57:34;20.08;50.92
67572;SHT31;54397;47.506;19.158;2022-10-16T10:00:56;20.72;48.21
67572;SHT31;54397;47.506;19.158;2022-10-16T10:04:23;20.64;50.69
67572;SHT31;54397;47.506;19.158;2022-10-16T10:07:57;21.09;46.96
67572;SHT31;54397;47.506;19.158;2022-10-16T10:11:36;20.79;48.47
67572;SHT31;54397;47.506;19.158;2022-10-16T10:15:07;20.94;47.89
67572;SHT31;54397;47.506;19.158;2022-10-16T10:18:31;21.40;47.95
67572;SHT31;54397;47.506;19.158;2022-10-16T10:21:53;21.05;48.51
67572;SHT31;54397;47.506;19.158;2022-10-16T10:25:19;22.21;47.82
67572;SHT31;54397;47.506;19.158;2022-10-16T10:29:00;22.32;45.28
67572;SHT31;54397;47.506;19.158;2022-10-16T10:40:11;23.41;43.09
67572;SHT31;54397;47.506;19.158;2022-10-16T10:51:11;23.66;42.14
67572;SHT31;54397;47.506;19.158;2022-10-16T10:58:58;23.74;41.26
67572;SHT31;54397;47.506;19.158;2022-10-16T11:02:45;24.37;43.08
67572;SHT31;54397;47.506;19.158;2022-10-16T11:06:22;24.22;43.35
67572;SHT31;54397;47.506;19.158;2022-10-16T11:09:49;24.00;41.51
67572;SHT31;54397;47.506;19.158;2022-10-16T11:17:02;24.28;41.22
67572;SHT31;54397;47.506;19.158;2022-10-16T11:20:31;24.28;42.68
67572;SHT31;54397;47.506;19.158;2022-10-16T11:24:04;23.87;42.38
67572;SHT31;54397;47.506;19.158;2022-10-16T11:27:37;23.46;43.28
67572;SHT31;54397;47.506;19.158;2022-10-16T11:31:08;22.91;43.73
67572;SHT31;54397;47.506;19.158;2022-10-16T11:34:40;24.07;41.62
67572;SHT31;54397;47.506;19.158;2022-10-16T11:38:07;23.77;41.73
67572;SHT31;54397;47.506;19.158;2022-10-16T11:41:58;24.31;40.19
67572;SHT31;54397;47.506;19.158;2022-10-16T11:49:08;24.82;40.12
67572;SHT31;54397;47.506;19.158;2022-10-16T11:52:42;25.19;39.27
67572;SHT31;54397;47.506;19.158;2022-10-16T11:56:08;24.65;39.31
67572;SHT31;54397;47.506;19.158;2022-10-16T11:59:42;24.59;39.49
67572;SHT31;54397;47.506;19.158;2022-10-16T12:03:22;24.34;41.46
67572;SHT31;54397;47.506;19.158;2022-10-16T12:10:19;24.38;39.93
67572;SHT31;54397;47.506;19.158;2022-10-16T12:13:50;23.97;39.72
67572;SHT31;54397;47.506;19.158;2022-10-16T12:17:24;23.73;41.10
67572;SHT31;54397;47.506;19.158;2022-10-16T12:20:57;23.06;42.04
67572;SHT31;54397;47.506;19.158;2022-10-16T12:24:35;22.45;43.40
67572;SHT31;54397;47.506;19.158;2022-10-16T12:28:19;22.48;43.56
67572;SHT31;54397;47.506;19.158;2022-10-16T12:31:46;23.18;44.32
67572;SHT31;54397;47.506;19.158;2022-10-16T12:35:23;23.58;41.49
67572;SHT31;54397;47.506;19.158;2022-10-16T12:38:51;23.53;41.43
67572;SHT31;54397;47.506;19.158;2022-10-16T12:45:47;22.56;43.35
67572;SHT31;54397;47.506;19.158;2022-10-16T13:06:55;22.45;43.31
67572;SHT31;54397;47.506;19.158;2022-10-16T13:13:51;22.25;44.36
67572;SHT31;54397;47.506;19.158;2022-10-16T13:28:11;21.85;44.73
67572;SHT31;54397;47.506;19.158;2022-10-16T13:31:38;21.80;45.04
67572;SHT31;54397;47.506;19.158;2022-10-16T13:35:18;21.83;44.62
67572;SHT31;54397;47.506;19.158;2022-10-16T13:38:40;21.88;44.91
67572;SHT31;54397;47.506;19.158;2022-10-16T13:42:14;21.61;45.23
67572;SHT31;54397;47.506;19.158;2022-10-16T13:45:36;21.60;44.39
67572;SHT31;54397;47.506;19.158;2022-10-16T13:49:02;21.70;45.11
67572;SHT31;54397;47.506;19.158;2022-10-16T13:52:24;21.78;45.07
67572;SHT31;54397;47.506;19.158;2022-10-16T13:55:46;21.64;45.21
67572;SHT31;54397;47.506;19.158;2022-10-16T13:59:25;21.63;44.81
67572;SHT31;54397;47.506;19.158;2022-10-16T14:03:01;21.43;44.58
67572;SHT31;54397;47.506;19.158;2022-10-16T14:06:24;21.54;45.25
67572;SHT31;54397;47.506;19.158;2022-10-16T14:09:50;21.64;45.00
67572;SHT31;54397;47.506;19.158;2022-10-16T14:13:18;21.58;44.21
67572;SHT31;54397;47.506;19.158;2022-10-16T14:16:42;21.65;44.56
67572;SHT31;54397;47.506;19.158;2022-10-16T14:20:12;21.42;44.41
67572;SHT31;54397;47.506;19.158;2022-10-16T14:23:41;21.43;44.86
67572;SHT31;54397;47.506;19.158;2022-10-16T14:27:24;21.29;44.86
67572;SHT31;54397;47.506;19.158;2022-10-16T14:34:26;21.32;44.49
67572;SHT31;54397;47.506;19.158;2022-10-16T14:37:52;21.30;44.63
67572;SHT31;54397;47.506;19.158;2022-10-16T14:41:14;21.23;45.08
67572;SHT31;54397;47.506;19.158;2022-10-16T14:44:39;21.26;45.97
67572;SHT31;54397;47.506;19.158;2022-10-16T14:48:06;21.23;45.71
67572;SHT31;54397;47.506;19.158;2022-10-16T14:51:41;21.23;45.74
67572;SHT31;54397;47.506;19.158;2022-10-16T14:55:03;21.25;45.62
67572;SHT31;54397;47.506;19.158;2022-10-16T14:58:25;21.25;45.65
67572;SHT31;54397;47.506;19.158;2022-10-16T15:01:50;21.16;46.13
67572;SHT31;54397;47.506;19.158;2022-10-16T15:08:38;20.89;46.66
67572;SHT31;54397;47.506;19.158;2022-10-16T15:12:02;20.85;47.19
67572;SHT31;54397;47.506;19.158;2022-10-16T15:18:45;20.67;48.32
67572;SHT31;54397;47.506;19.158;2022-10-16T15:22:10;20.52;48.24
67572;SHT31;54397;47.506;19.158;2022-10-16T15:29:03;20.37;50.08
67572;SHT31;54397;47.506;19.158;2022-10-16T15:32:27;20.36;49.49
67572;SHT31;54397;47.506;19.158;2022-10-16T15:35:53;20.19;50.33
67572;SHT31;54397;47.506;19.158;2022-10-16T15:39:18;20.17;50.63
67572;SHT31;54397;47.506;19.158;2022-10-16T15:42:42;20.12;50.33
67572;SHT31;54397;47.506;19.158;2022-10-16T15:46:06;20.02;50.97
67572;SHT31;54397;47.506;19.158;2022-10-16T15:49:32;19.92;50.90
67572;SHT31;54397;47.506;19.158;2022-10-16T15:52:56;19.83;51.45
67572;SHT31;54397;47.506;19.158;2022-10-16T15:56:18;19.72;51.58
67572;SHT31;54397;47.506;19.158;2022-10-16T15:59:39;19.61;52.20
67572;SHT31;54397;47.506;19.158;2022-10-16T16:03:01;19.43;54.03
67572;SHT31;54397;47.506;19.158;2022-10-16T16:06:23;19.31;54.60
67572;SHT31;54397;47.506;19.158;2022-10-16T16:09:48;19.28;55.74
67572;SHT31;54397;47.506;19.158;2022-10-16T16:13:12;19.20;56.92
67572;SHT31;54397;47.506;19.158;2022-10-16T16:16:33;19.09;56.35
67572;SHT31;54397;47.506;19.158;2022-10-16T16:19:58;19.04;54.92
67572;SHT31;54397;47.506;19.158;2022-10-16T16:23:20;19.00;56.93
67572;SHT31;54397;47.506;19.158;2022-10-16T16:26:42;18.82;58.26
67572;SHT31;54397;47.506;19.158;2022-10-16T16:30:06;18.63;59.22
67572;SHT31;54397;47.506;19.158;2022-10-16T16:33:32;18.37;59.68
67572;SHT31;54397;47.506;19.158;2022-10-16T16:36:55;18.25;60.83
67572;SHT31;54397;47.506;19.158;2022-10-16T16:40:17;18.07;61.36
67572;SHT31;54397;47.506;19.158;2022-10-16T16:43:42;17.98;62.11
67572;SHT31;54397;47.506;19.158;2022-10-16T16:47:06;17.79;62.37
67572;SHT31;54397;47.506;19.158;2022-10-16T16:50:28;17.67;63.25
67572;SHT31;54397;47.506;19.158;2022-10-16T16:53:53;17.65;63.20
67572;SHT31;54397;47.506;19.158;2022-10-16T16:57:15;17.57;63.91
67572;SHT31;54397;47.506;19.158;2022-10-16T17:00:36;17.32;64.96
67572;SHT31;54397;47.506;19.158;2022-10-16T17:03:58;17.27;64.97
67572;SHT31;54397;47.506;19.158;2022-10-16T17:07:20;17.15;65.46
67572;SHT31;54397;47.506;19.158;2022-10-16T17:10:44;16.87;66.19
67572;SHT31;54397;47.506;19.158;2022-10-16T17:14:08;16.74;66.33
67572;SHT31;54397;47.506;19.158;2022-10-16T17:17:33;16.55;66.78
67572;SHT31;54397;47.506;19.158;2022-10-16T17:20:54;16.42;67.57
67572;SHT31;54397;47.506;19.158;2022-10-16T17:24:19;16.34;68.07
67572;SHT31;54397;47.506;19.158;2022-10-16T17:27:44;16.34;67.25
67572;SHT31;54397;47.506;19.158;2022-10-16T17:31:22;16.30;67.18
67572;SHT31;54397;47.506;19.158;2022-10-16T17:34:44;16.25;67.34
67572;SHT31;54397;47.506;19.158;2022-10-16T17:38:13;16.08;66.89
67572;SHT31;54397;47.506;19.158;2022-10-16T17:41:36;16.22;67.34
67572;SHT31;54397;47.506;19.158;2022-10-16T17:44:57;16.25;67.59
67572;SHT31;54397;47.506;19.158;2022-10-16T17:48:26;16.33;67.81
67572;SHT31;54397;47.506;19.158;2022-10-16T17:51:52;16.32;67.72
67572;SHT31;54397;47.506;19.158;2022-10-16T17:55:14;16.33;67.97
67572;SHT31;54397;47.506;19.158;2022-10-16T17:58:38;16.38;66.46
67572;SHT31;54397;47.506;19.158;2022-10-16T18:02:00;16.23;67.78
67572;SHT31;54397;47.506;19.158;2022-10-16T18:05:21;16.16;68.23
67572;SHT31;54397;47.506;19.158;2022-10-16T18:08:43;16.11;68.16
67572;SHT31;54397;47.506;19.158;2022-10-16T18:12:05;16.04;68.20
67572;SHT31;54397;47.506;19.158;2022-10-16T18:15:28;15.95;68.75
67572;SHT31;54397;47.506;19.158;2022-10-16T18:18:51;16.00;66.54
67572;SHT31;54397;47.506;19.158;2022-10-16T18:22:15;15.94;67.17
67572;SHT31;54397;47.506;19.158;2022-10-16T18:25:39;16.08;65.62
67572;SHT31;54397;47.506;19.158;2022-10-16T18:29:00;16.08;66.56
67572;SHT31;54397;47.506;19.158;2022-10-16T18:32:25;16.02;67.20
67572;SHT31;54397;47.506;19.158;2022-10-16T18:35:53;16.04;67.31
67572;SHT31;54397;47.506;19.158;2022-10-16T18:39:17;15.88;67.03
67572;SHT31;54397;47.506;19.158;2022-10-16T18:42:43;15.64;68.57
67572;SHT31;54397;47.506;19.158;2022-10-16T18:46:25;15.49;68.47
67572;SHT31;54397;47.506;19.158;2022-10-16T18:49:50;15.40;68.67
67572;SHT31;54397;47.506;19.158;2022-10-16T18:53:14;15.27;69.02
67572;SHT31;54397;47.506;19.158;2022-10-16T18:56:39;15.20;75.81
67572;SHT31;54397;47.506;19.158;2022-10-16T19:00:00;15.97;80.43
67572;SHT31;54397;47.506;19.158;2022-10-16T19:03:22;16.56;76.70
67572;SHT31;54397;47.506;19.158;2022-10-16T19:06:46;16.88;71.48
67572;SHT31;54397;47.506;19.158;2022-10-16T19:10:09;16.63;65.93
67572;SHT31;54397;47.506;19.158;2022-10-16T19:13:32;16.23;66.44
67572;SHT31;54397;47.506;19.158;2022-10-16T19:16:54;15.83;66.72
67572;SHT31;54397;47.506;19.158;2022-10-16T19:20:18;15.36;68.68
67572;SHT31;54397;47.506;19.158;2022-10-16T19:23:40;14.96;69.24
67572;SHT31;54397;47.506;19.158;2022-10-16T19:27:01;14.82;70.30
67572;SHT31;54397;47.506;19.158;2022-10-16T19:30:23;14.70;70.04
67572;SHT31;54397;47.506;19.158;2022-10-16T19:33:45;14.75;69.71
67572;SHT31;54397;47.506;19.158;2022-10-16T19:37:14;14.96;69.81
67572;SHT31;54397;47.506;19.158;2022-10-16T19:40:36;15.09;69.06
67572;SHT31;54397;47.506;19.158;2022-10-16T19:44:02;15.15;69.22
67572;SHT31;54397;47.506;19.158;2022-10-16T19:47:24;15.03;69.22
67572;SHT31;54397;47.506;19.158;2022-10-16T19:50:48;15.02;69.66
67572;SHT31;54397;47.506;19.158;2022-10-16T19:54:12;14.95;69.95
67572;SHT31;54397;47.506;19.158;2022-10-16T19:57:35;14.99;69.98
67572;SHT31;54397;47.506;19.158;2022-10-16T20:00:59;14.77;70.53
67572;SHT31;54397;47.506;19.158;2022-10-16T20:04:24;14.68;69.79
67572;SHT31;54397;47.506;19.158;2022-10-16T20:07:48;14.78;70.76
67572;SHT31;54397;47.506;19.158;2022-10-16T20:11:14;14.91;70.59
67572;SHT31;54397;47.506;19.158;2022-10-16T20:14:38;15.06;76.93
67572;SHT31;54397;47.506;19.158;2022-10-16T20:17:59;15.39;73.64
67572;SHT31;54397;47.506;19.158;2022-10-16T20:21:28;15.66;74.20
67572;SHT31;54397;47.506;19.158;2022-10-16T20:24:49;15.80;72.66
67572;SHT31;54397;47.506;19.158;2022-10-16T20:28:13;16.06;73.13
67572;SHT31;54397;47.506;19.158;2022-10-16T20:31:39;16.25;71.89
67572;SHT31;54397;47.506;19.158;2022-10-16T20:35:00;16.13;67.29
67572;SHT31;54397;47.506;19.158;2022-10-16T20:38:27;15.90;67.61
67572;SHT31;54397;47.506;19.158;2022-10-16T20:41:49;15.57;68.47
67572;SHT31;54397;47.506;19.158;2022-10-16T20:45:10;15.35;69.21
67572;SHT31;54397;47.506;19.158;2022-10-16T20:48:32;15.13;69.88
67572;SHT31;54397;47.506;19.158;2022-10-16T20:51:59;14.92;70.54
67572;SHT31;54397;47.506;19.158;2022-10-16T20:55:23;14.85;70.77
67572;SHT31;54397;47.506;19.158;2022-10-16T20:58:45;14.65;71.44
67572;SHT31;54397;47.506;19.158;2022-10-16T21:02:11;14.56;71.59
67572;SHT31;54397;47.506;19.158;2022-10-16T21:05:39;14.48;72.28
67572;SHT31;54397;47.506;19.158;2022-10-16T21:09:01;14.45;72.29
67572;SHT31;54397;47.506;19.158;2022-10-16T21:12:26;14.43;72.05
67572;SHT31;54397;47.506;19.158;2022-10-16T21:15:48;14.40;72.42
67572;SHT31;54397;47.506;19.158;2022-10-16T21:19:12;14.36;72.17
67572;SHT31;54397;47.506;19.158;2022-10-16T21:22:38;14.24;72.68
67572;SHT31;54397;47.506;19.158;2022-10-16T21:26:02;14.10;72.48
67572;SHT31;54397;47.506;19.158;2022-10-16T21:29:26;14.03;73.17
67572;SHT31;54397;47.506;19.158;2022-10-16T21:32:51;13.99;72.90
67572;SHT31;54397;47.506;19.158;2022-10-16T21:36:15;13.92;72.91
67572;SHT31;54397;47.506;19.158;2022-10-16T21:39:37;13.89;72.82
67572;SHT31;54397;47.506;19.158;2022-10-16T21:43:01;13.82;72.92
67572;SHT31;54397;47.506;19.158;2022-10-16T21:46:27;13.75;73.37
67572;SHT31;54397;47.506;19.158;2022-10-16T21:49:53;13.74;73.29
67572;SHT31;54397;47.506;19.158;2022-10-16T21:53:15;13.68;72.97
67572;SHT31;54397;47.506;19.158;2022-10-16T21:56:36;13.50;73.40
67572;SHT31;54397;47.506;19.158;2022-10-16T21:59:58;13.48;73.51
67572;SHT31;54397;47.506;19.158;2022-10-16T22:03:27;13.26;73.74
67572;SHT31;54397;47.506;19.158;2022-10-16T22:06:49;13.33;74.00
67572;SHT31;54397;47.506;19.158;2022-10-16T22:10:15;13.28;73.95
67572;SHT31;54397;47.506;19.158;2022-10-16T22:13:43;13.30;73.75
67572;SHT31;54397;47.506;19.158;2022-10-16T22:17:05;13.27;73.73
67572;SHT31;54397;47.506;19.158;2022-10-16T22:20:26;13.28;73.51
67572;SHT31;54397;47.506;19.158;2022-10-16T22:23:50;13.13;74.35
67572;SHT31;54397;47.506;19.158;2022-10-16T22:27:12;13.13;74.57
67572;SHT31;54397;47.506;19.158;2022-10-16T22:30:38;13.16;74.55
67572;SHT31;54397;47.506;19.158;2022-10-16T22:34:03;13.09;74.73
67572;SHT31;54397;47.506;19.158;2022-10-16T22:37:25;13.10;74.80
67572;SHT31;54397;47.506;19.158;2022-10-16T22:40:47;13.11;74.71
67572;SHT31;54397;47.506;19.158;2022-10-16T22:44:11;13.13;74.41
67572;SHT31;54397;47.506;19.158;2022-10-16T22:47:32;13.09;74.03
67572;SHT31;54397;47.506;19.158;2022-10-16T22:50:56;13.04;74.55
67572;SHT31;54397;47.506;19.158;2022-10-16T22:54:17;13.07;74.21
67572;SHT31;54397;47.506;19.158;2022-10-16T22:57:39;12.97;74.18
67572;SHT31;54397;47.506;19.158;2022-10-16T23:01:01;12.89;74.51
67572;SHT31;54397;47.506;19.158;2022-10-16T23:04:22;12.86;74.89